Time;durP1;ratioP1;P1;durP2;ratioP2;P2;SDS_P1;SDS_P2;PMS_P1;PMS_P2;Temp;Humidity;BMP_temperature;BMP_pressure;BME280_temperature;BME280_humidity;BME280_pressure;Samples;Min_cycle;Max_cycle;Signal;HPM_P1;HPM_P2
2023/06/23 00:02:22;;;;;;;4.70;2.43;;;26.90;97.40;;;;;;5041165;28;20205;-85
2023/06/23 00:04:53;;;;;;;2.70;2.50;;;26.90;99.50;;;;;;5029123;28;20210;-85
2023/06/23 00:07:25;;;;;;;4.00;2.70;;;27.00;98.50;;;;;;5022020;28;20562;-86
2023/06/23 00:09:56;;;;;;;3.50;2.60;;;27.10;99.00;;;;;;5028266;28;20225;-86
2023/06/23 00:12:27;;;;;;;2.97;2.70;;;27.10;97.20;;;;;;5024217;28;20198;-86
2023/06/23 00:14:58;;;;;;;2.87;2.47;;;27.00;97.30;;;;;;5035655;28;20205;-84
2023/06/23 00:17:29;;;;;;;3.10;2.80;;;26.80;96.50;;;;;;5036834;28;20695;-84
2023/06/23 00:20:01;;;;;;;3.33;3.03;;;26.90;97.00;;;;;;5033579;28;20244;-85
2023/06/23 00:22:34;;;;;;;3.30;2.87;;;26.80;97.10;;;;;;5025368;28;20319;-84
2023/06/23 00:25:05;;;;;;;3.00;2.73;;;26.70;97.30;;;;;;5023597;28;20212;-86
2023/06/23 00:27:36;;;;;;;4.63;2.60;;;26.70;96.80;;;;;;5016985;28;20213;-85
2023/06/23 00:30:08;;;;;;;5.97;3.53;;;26.70;97.60;;;;;;5019896;28;20580;-85
2023/06/23 00:32:39;;;;;;;2.80;2.60;;;26.70;98.50;;;;;;5032515;28;20674;-84
2023/06/23 00:35:12;;;;;;;3.07;2.77;;;26.70;97.40;;;;;;5041453;28;20208;-84
2023/06/23 00:37:45;;;;;;;3.33;3.03;;;26.70;97.00;;;;;;5034725;28;20201;-85
2023/06/23 00:40:16;;;;;;;3.97;2.70;;;26.60;98.10;;;;;;5038029;28;20221;-85
2023/06/23 00:42:52;;;;;;;3.47;2.80;;;26.60;98.80;;;;;;5026739;28;20280;-85
2023/06/23 00:45:24;;;;;;;4.27;3.00;;;26.60;98.20;;;;;;5025379;28;20208;-85
2023/06/23 00:47:55;;;;;;;2.90;2.67;;;26.70;99.40;;;;;;5032312;28;20210;-83
2023/06/23 00:50:26;;;;;;;3.43;2.70;;;26.90;97.40;;;;;;5015795;28;20320;-84
2023/06/23 00:53:02;;;;;;;5.13;4.40;;;27.30;97.20;;;;;;5030985;28;20205;-91
2023/06/23 00:55:37;;;;;;;3.53;3.00;;;27.80;99.90;;;;;;5032323;28;20231;-92
2023/06/23 00:58:10;;;;;;;5.47;3.00;;;28.10;98.40;;;;;;5031001;28;20267;-92
2023/06/23 01:00:41;;;;;;;4.90;3.20;;;28.10;97.50;;;;;;5028975;28;20201;-92
2023/06/23 01:03:12;;;;;;;3.10;2.80;;;28.40;98.90;;;;;;5022462;28;20205;-92
2023/06/23 01:05:45;;;;;;;4.60;3.13;;;28.90;99.20;;;;;;5026945;28;20300;-93
2023/06/23 01:08:31;;;;;;;4.45;3.17;;;29.30;99.40;;;;;;5030528;28;20212;-94
2023/06/23 01:11:08;;;;;;;2.85;2.65;;;29.30;99.30;;;;;;5033179;28;20240;-92
2023/06/23 01:13:45;;;;;;;3.30;3.00;;;29.00;97.80;;;;;;5017208;28;20263;-91
2023/06/23 01:16:22;;;;;;;3.30;3.00;;;29.00;99.90;;;;;;5028395;28;20201;-92
2023/06/23 01:19:00;;;;;;;3.53;3.22;;;29.30;97.20;;;;;;5018023;28;20197;-93
2023/06/23 01:21:41;;;;;;;4.35;3.20;;;29.50;98.60;;;;;;5031029;28;20243;-95
2023/06/23 01:24:32;;;;;;;4.22;2.78;;;29.40;96.30;;;;;;5026936;28;20202;-94
2023/06/23 01:27:21;;;;;;;4.72;3.08;;;29.30;95.90;;;;;;5028170;28;20288;-92
2023/06/23 01:29:58;;;;;;;2.90;2.70;;;29.40;97.20;;;;;;4767591;28;10000611;-94
2023/06/23 01:32:36;;;;;;;3.58;3.03;;;29.60;97.50;;;;;;5046841;28;20408;-93
2023/06/23 01:35:12;;;;;;;3.55;2.70;;;29.80;98.60;;;;;;5042894;28;20205;-94
2023/06/23 01:37:50;;;;;;;6.63;3.10;;;29.00;99.60;;;;;;5043004;28;20185;-96
2023/06/23 01:40:25;;;;;;;5.22;3.00;;;28.90;99.90;;;;;;5051326;28;20260;-95
2023/06/23 01:42:58;;;;;;;2.95;2.55;;;28.60;99.90;;;;;;5029351;28;20208;-95
2023/06/23 01:45:31;;;;;;;5.67;2.70;;;28.40;99.90;;;;;;5032482;28;20264;-96
2023/06/23 01:48:08;;;;;;;3.75;2.83;;;27.90;99.90;;;;;;5037334;28;20679;-96
2023/06/23 01:50:42;;;;;;;3.93;3.00;;;28.10;99.90;;;;;;5035488;28;20228;-95
2023/06/23 01:53:16;;;;;;;3.20;2.63;;;28.40;99.90;;;;;;5036870;28;20208;-93
2023/06/23 01:55:47;;;;;;;13.95;3.45;;;28.20;99.90;;;;;;5042826;28;20209;-91
2023/06/23 01:58:20;;;;;;;3.45;3.15;;;28.20;99.90;;;;;;5046830;28;20202;-92
2023/06/23 02:00:56;;;;;;;3.30;3.00;;;28.20;99.90;;;;;;5038480;28;20232;-90
2023/06/23 02:03:28;;;;;;;3.67;3.00;;;27.50;99.90;;;;;;5029255;28;20243;-85
2023/06/23 02:06:00;;;;;;;3.67;2.63;;;26.60;99.90;;;;;;5031771;28;20626;-85
2023/06/23 02:08:32;;;;;;;2.80;2.47;;;25.50;99.90;;;;;;5027636;28;20703;-85
2023/06/23 02:11:03;;;;;;;3.40;2.60;;;25.20;99.90;;;;;;5020257;28;20237;-85
2023/06/23 02:13:35;;;;;;;4.57;2.50;;;25.10;99.90;;;;;;5020768;28;20259;-84
2023/06/23 02:16:09;;;;;;;3.83;2.80;;;24.90;99.90;;;;;;5025253;28;20259;-85
2023/06/23 02:18:41;;;;;;;6.23;2.93;;;24.90;99.90;;;;;;5017465;28;20267;-85
2023/06/23 02:21:14;;;;;;;3.00;2.60;;;24.70;99.90;;;;;;5018341;28;20209;-84
2023/06/23 02:23:45;;;;;;;3.60;2.90;;;24.80;99.90;;;;;;5026258;28;20921;-85
2023/06/23 02:26:16;;;;;;;4.17;3.20;;;24.90;99.90;;;;;;5018285;28;20702;-84
2023/06/23 02:28:49;;;;;;;3.80;3.10;;;24.90;99.90;;;;;;5015600;28;20201;-84
2023/06/23 02:31:24;;;;;;;5.97;3.20;;;24.80;99.90;;;;;;5026520;28;20771;-84
2023/06/23 02:33:56;;;;;;;3.87;2.90;;;24.50;99.90;;;;;;5021295;28;20291;-85
2023/06/23 02:36:31;;;;;;;5.20;2.80;;;24.30;99.90;;;;;;5022210;28;20617;-85
2023/06/23 02:39:06;;;;;;;6.37;3.37;;;24.10;99.90;;;;;;5025128;28;20255;-86
2023/06/23 02:41:40;;;;;;;2.97;2.70;;;23.80;99.90;;;;;;5019584;28;20212;-85
2023/06/23 02:44:16;;;;;;;5.57;2.90;;;23.70;99.90;;;;;;5016741;28;20235;-86
2023/06/23 02:46:54;;;;;;;3.93;2.97;;;23.50;99.90;;;;;;5023670;28;20258;-84
2023/06/23 02:49:30;;;;;;;3.57;3.27;;;23.20;99.90;;;;;;5019182;28;20247;-84
2023/06/23 02:52:02;;;;;;;3.57;2.80;;;23.10;99.90;;;;;;5025111;28;20236;-84
2023/06/23 02:54:38;;;;;;;4.57;3.07;;;22.90;99.90;;;;;;5023611;28;20781;-84
2023/06/23 02:57:13;;;;;;;3.97;3.00;;;22.70;99.90;;;;;;5017745;28;20197;-82
2023/06/23 02:59:45;;;;;;;3.97;3.10;;;22.60;99.90;;;;;;5022271;28;20201;-84
2023/06/23 03:02:19;;;;;;;4.23;3.60;;;22.50;99.90;;;;;;5019260;28;20983;-85
2023/06/23 03:04:50;;;;;;;3.20;2.90;;;22.40;99.90;;;;;;5018676;28;20216;-84
2023/06/23 03:07:21;;;;;;;3.13;2.83;;;22.40;99.90;;;;;;5025019;28;20697;-83
2023/06/23 03:09:52;;;;;;;4.60;2.53;;;22.30;99.90;;;;;;5020940;28;20731;-82
2023/06/23 03:12:23;;;;;;;5.77;3.13;;;22.20;99.90;;;;;;5024999;28;20236;-83
2023/06/23 03:14:54;;;;;;;4.13;2.83;;;22.10;99.90;;;;;;5018166;28;20209;-84
2023/06/23 03:17:30;;;;;;;3.33;2.70;;;22.00;99.90;;;;;;5024973;28;20255;-93
2023/06/23 03:20:09;;;;;;;3.10;2.80;;;21.90;99.90;;;;;;5027180;28;20205;-88
2023/06/23 03:22:45;;;;;;;3.90;3.00;;;21.70;99.90;;;;;;5031430;28;20205;-87
2023/06/23 03:25:19;;;;;;;3.17;2.87;;;21.60;99.90;;;;;;5028265;28;20200;-89
2023/06/23 03:27:51;;;;;;;2.93;2.73;;;21.40;99.90;;;;;;5035554;28;20211;-87
2023/06/23 03:30:26;;;;;;;3.40;2.60;;;21.30;99.90;;;;;;5029183;28;20205;-88
2023/06/23 03:33:02;;;;;;;4.30;2.77;;;21.30;99.90;;;;;;5029882;28;20235;-88
2023/06/23 03:35:40;;;;;;;2.77;2.57;;;21.20;99.90;;;;;;5026269;28;20279;-89
2023/06/23 03:38:15;;;;;;;3.13;2.80;;;21.20;99.90;;;;;;5019227;28;20214;-88
2023/06/23 03:40:50;;;;;;;3.67;2.87;;;21.10;99.90;;;;;;5025009;28;20213;-88
2023/06/23 03:43:27;;;;;;;3.03;2.60;;;21.10;99.90;;;;;;5028604;28;20684;-88
2023/06/23 03:46:02;;;;;;;3.07;2.77;;;21.10;99.90;;;;;;5032449;28;20254;-87
2023/06/23 03:48:40;;;;;;;3.93;2.83;;;20.90;99.90;;;;;;5017765;28;20240;-88
2023/06/23 03:51:14;;;;;;;2.90;2.60;;;20.90;99.90;;;;;;5030267;28;20204;-89
2023/06/23 03:53:50;;;;;;;3.10;2.80;;;20.80;99.90;;;;;;5029718;28;20283;-89
2023/06/23 03:56:22;;;;;;;3.00;2.70;;;20.70;99.90;;;;;;5030096;28;20224;-88
2023/06/23 03:58:54;;;;;;;3.57;2.33;;;20.60;99.90;;;;;;5032352;28;20271;-88
2023/06/23 04:01:26;;;;;;;3.30;2.80;;;20.60;99.90;;;;;;5032961;28;20266;-87
2023/06/23 04:04:00;;;;;;;3.90;2.50;;;20.50;99.90;;;;;;5031199;28;20251;-88
2023/06/23 04:06:32;;;;;;;3.17;2.60;;;20.40;99.90;;;;;;5022867;28;20212;-89
2023/06/23 04:09:06;;;;;;;6.23;2.90;;;20.30;99.90;;;;;;5034141;28;20666;-88
2023/06/23 04:11:39;;;;;;;3.90;2.70;;;20.20;99.90;;;;;;5034200;28;20228;-89
2023/06/23 04:14:12;;;;;;;3.70;2.73;;;20.00;99.90;;;;;;5032034;28;20211;-87
2023/06/23 04:16:44;;;;;;;3.97;2.53;;;19.90;99.90;;;;;;5034173;28;20223;-88
2023/06/23 04:19:18;;;;;;;2.23;2.03;;;19.80;99.90;;;;;;5022287;28;20224;-88
2023/06/23 04:21:50;;;;;;;3.73;2.40;;;19.70;99.90;;;;;;5031727;28;20230;-88
2023/06/23 04:24:23;;;;;;;5.47;2.57;;;19.70;99.90;;;;;;5034925;28;20201;-89
2023/06/23 04:26:57;;;;;;;2.77;2.03;;;19.60;99.90;;;;;;5035695;28;20201;-89
2023/06/23 04:29:29;;;;;;;3.73;2.40;;;19.50;99.90;;;;;;5035705;28;20205;-88
2023/06/23 04:32:01;;;;;;;2.30;2.10;;;19.40;99.90;;;;;;5037994;28;20225;-87
2023/06/23 04:34:34;;;;;;;4.70;2.20;;;19.30;99.90;;;;;;5035749;28;20205;-88
2023/06/23 04:37:10;;;;;;;2.37;2.17;;;19.30;99.90;;;;;;5029190;28;20209;-88
2023/06/23 04:39:48;;;;;;;3.43;2.27;;;19.20;99.90;;;;;;5048941;28;20237;-89
2023/06/23 04:42:25;;;;;;;2.30;2.10;;;19.10;99.90;;;;;;5033152;28;20263;-88
2023/06/23 04:45:00;;;;;;;2.80;2.10;;;19.00;99.90;;;;;;5022104;28;20346;-87
2023/06/23 04:47:35;;;;;;;4.20;2.10;;;18.90;99.90;;;;;;5034454;28;20255;-88
2023/06/23 04:50:11;;;;;;;3.27;2.40;;;18.80;99.90;;;;;;5034594;28;20192;-87
2023/06/23 04:52:46;;;;;;;4.23;2.20;;;18.70;99.90;;;;;;5033357;28;20239;-86
2023/06/23 04:55:21;;;;;;;2.40;2.20;;;18.70;99.90;;;;;;5020152;28;20209;-86
2023/06/23 04:57:56;;;;;;;3.80;2.33;;;18.50;99.90;;;;;;5019122;28;20287;-88
2023/06/23 05:00:28;;;;;;;3.30;2.00;;;18.50;99.90;;;;;;5017423;28;20204;-88
2023/06/23 05:03:01;;;;;;;2.80;2.23;;;18.40;99.90;;;;;;5020623;28;20205;-88
2023/06/23 05:05:35;;;;;;;4.60;2.50;;;18.30;99.90;;;;;;5024615;28;20288;-88
2023/06/23 05:08:07;;;;;;;2.60;2.40;;;18.20;99.90;;;;;;5018971;28;20617;-88
2023/06/23 05:10:41;;;;;;;3.80;2.33;;;18.20;99.90;;;;;;5016056;28;20221;-89
2023/06/23 05:13:13;;;;;;;3.83;2.57;;;18.00;99.90;;;;;;5023242;28;20225;-88
2023/06/23 05:15:46;;;;;;;2.57;2.20;;;18.00;99.90;;;;;;5030547;28;20658;-88
2023/06/23 05:18:19;;;;;;;2.40;2.20;;;17.90;99.90;;;;;;5019206;28;20201;-88
2023/06/23 05:20:53;;;;;;;3.97;2.33;;;17.90;99.90;;;;;;5031050;28;20221;-88
2023/06/23 05:23:25;;;;;;;2.40;2.20;;;17.80;99.90;;;;;;5023340;28;20217;-88
2023/06/23 05:26:00;;;;;;;2.43;2.23;;;17.80;99.90;;;;;;5030290;28;20223;-88
2023/06/23 05:28:35;;;;;;;3.43;2.40;;;17.80;99.90;;;;;;5028723;28;20572;-88
2023/06/23 05:31:07;;;;;;;3.40;1.97;;;17.70;99.90;;;;;;5028536;28;20261;-88
2023/06/23 05:33:40;;;;;;;2.30;2.10;;;17.60;99.90;;;;;;5028793;28;20719;-87
2023/06/23 05:36:15;;;;;;;3.80;2.10;;;17.60;99.90;;;;;;5031475;28;20209;-87
2023/06/23 05:38:47;;;;;;;3.00;2.10;;;17.60;99.90;;;;;;5021480;28;20211;-88
2023/06/23 05:41:19;;;;;;;3.10;2.03;;;17.50;99.90;;;;;;5029413;28;20582;-87
2023/06/23 05:43:49;;;;;;;3.77;2.03;;;17.50;99.90;;;;;;5033462;28;20251;-88
2023/06/23 05:46:26;;;;;;;2.07;1.83;;;17.40;99.90;;;;;;5030529;28;20209;-88
2023/06/23 05:49:06;;;;;;;2.33;1.87;;;17.30;99.90;;;;;;5021004;28;20216;-87
2023/06/23 05:51:41;;;;;;;3.10;2.10;;;17.20;99.90;;;;;;5027404;28;20221;-87
2023/06/23 05:54:13;;;;;;;2.93;1.60;;;17.20;99.90;;;;;;5022841;28;20232;-87
2023/06/23 05:56:46;;;;;;;3.17;1.97;;;17.10;99.90;;;;;;5034008;28;20221;-86
2023/06/23 05:59:24;;;;;;;2.97;1.73;;;17.10;99.90;;;;;;5037193;28;20209;-88
2023/06/23 06:01:59;;;;;;;2.10;1.90;;;17.00;99.90;;;;;;5030688;28;20213;-88
2023/06/23 06:04:33;;;;;;;3.37;2.13;;;17.00;99.90;;;;;;5038236;28;20220;-87
2023/06/23 06:07:07;;;;;;;2.47;1.70;;;17.00;99.90;;;;;;5033926;28;20217;-87
2023/06/23 06:09:39;;;;;;;3.87;1.80;;;16.90;99.90;;;;;;5033523;28;20622;-88
2023/06/23 06:12:12;;;;;;;2.33;1.80;;;16.90;99.90;;;;;;5026614;28;20220;-88
2023/06/23 06:14:45;;;;;;;4.97;1.70;;;16.80;99.90;;;;;;5014683;28;20575;-87
2023/06/23 06:17:18;;;;;;;2.87;2.03;;;16.80;99.90;;;;;;5035872;28;20273;-87
2023/06/23 06:19:57;;;;;;;4.47;1.80;;;16.70;99.90;;;;;;5026894;28;20240;-89
2023/06/23 06:22:34;;;;;;;2.30;2.10;;;16.70;99.90;;;;;;5017520;28;20232;-96
2023/06/23 06:25:07;;;;;;;2.70;2.40;;;16.70;99.90;;;;;;5035735;28;20205;-96
2023/06/23 06:27:40;;;;;;;2.73;2.20;;;16.60;99.90;;;;;;5021161;28;20212;-95
2023/06/23 06:30:13;;;;;;;4.33;2.20;;;16.60;99.90;;;;;;5032992;28;20681;-96
2023/06/23 06:32:45;;;;;;;4.83;2.77;;;16.60;99.90;;;;;;5022120;28;20233;-95
2023/06/23 06:35:19;;;;;;;4.50;2.83;;;16.50;99.90;;;;;;5035512;28;20240;-96
2023/06/23 06:37:53;;;;;;;3.33;2.80;;;16.50;99.90;;;;;;5018754;28;20214;-96
2023/06/23 06:40:26;;;;;;;4.50;2.70;;;16.50;99.90;;;;;;5025420;28;20625;-96
2023/06/23 06:42:58;;;;;;;5.90;2.73;;;16.40;99.90;;;;;;5032603;28;20597;-96
2023/06/23 06:45:31;;;;;;;3.13;2.80;;;16.40;99.90;;;;;;5027110;28;20657;-96
2023/06/23 06:48:10;;;;;;;6.47;3.63;;;16.30;99.90;;;;;;5027695;28;20227;-96
2023/06/23 06:50:42;;;;;;;5.77;3.10;;;16.30;99.90;;;;;;5031939;28;20291;-96
2023/06/23 06:53:20;;;;;;;3.77;3.23;;;16.30;99.90;;;;;;5029899;28;20308;-94
2023/06/23 06:55:52;;;;;;;3.73;2.97;;;16.30;99.90;;;;;;5028681;28;20251;-96
2023/06/23 06:58:24;;;;;;;3.70;3.17;;;16.20;99.90;;;;;;5031097;28;20197;-96
2023/06/23 07:00:57;;;;;;;4.63;3.07;;;16.20;99.90;;;;;;5029493;28;20208;-96
2023/06/23 07:03:28;;;;;;;3.53;3.23;;;16.20;99.90;;;;;;5034641;28;20228;-96
2023/06/23 07:05:59;;;;;;;3.90;3.37;;;16.20;99.90;;;;;;5029285;28;20256;-96
2023/06/23 07:08:32;;;;;;;3.57;3.27;;;16.20;99.90;;;;;;5032084;28;20214;-96
2023/06/23 07:11:04;;;;;;;3.83;3.03;;;16.10;99.90;;;;;;5026476;28;20209;-96
2023/06/23 07:13:35;;;;;;;4.13;3.23;;;16.10;99.90;;;;;;5029859;28;20262;-96
2023/06/23 07:16:07;;;;;;;3.30;3.00;;;16.00;99.90;;;;;;5033127;28;20220;-96
2023/06/23 07:18:40;;;;;;;5.00;3.50;;;16.00;99.90;;;;;;5021920;28;20209;-96
2023/06/23 07:21:12;;;;;;;4.13;3.33;;;16.00;99.90;;;;;;5032184;28;20237;-96
2023/06/23 07:23:44;;;;;;;3.50;2.87;;;15.90;99.90;;;;;;5023778;28;20205;-96
2023/06/23 07:26:18;;;;;;;4.40;3.37;;;15.90;99.90;;;;;;5034002;28;20227;-96
2023/06/23 07:28:50;;;;;;;7.43;3.70;;;15.80;99.90;;;;;;5031610;28;20211;-96
2023/06/23 07:31:21;;;;;;;5.53;3.13;;;15.80;99.90;;;;;;5035468;28;20236;-96
2023/06/23 07:33:53;;;;;;;4.67;3.30;;;15.80;99.90;;;;;;5021527;28;20326;-95
2023/06/23 07:36:24;;;;;;;4.17;3.40;;;15.80;99.90;;;;;;5030578;28;20292;-96
2023/06/23 07:38:57;;;;;;;3.73;3.10;;;15.80;99.90;;;;;;5025608;28;20209;-94
2023/06/23 07:41:29;;;;;;;3.87;3.40;;;15.70;99.90;;;;;;5027553;28;20204;-96
2023/06/23 07:44:00;;;;;;;5.27;3.23;;;15.70;99.90;;;;;;5035081;28;20201;-96
2023/06/23 07:46:33;;;;;;;3.83;3.37;;;15.70;99.90;;;;;;5032648;28;20220;-96
2023/06/23 07:49:05;;;;;;;3.80;3.37;;;15.60;99.90;;;;;;5031926;28;20213;-96
2023/06/23 07:51:37;;;;;;;3.47;3.17;;;15.60;99.90;;;;;;5025843;28;20600;-95
2023/06/23 07:54:10;;;;;;;4.00;3.60;;;15.50;99.90;;;;;;5051055;28;20608;-95
2023/06/23 07:56:42;;;;;;;5.53;3.53;;;15.40;99.90;;;;;;5038950;28;20213;-95
2023/06/23 07:59:13;;;;;;;5.50;3.70;;;15.40;99.90;;;;;;5036668;28;20209;-95
2023/06/23 08:01:45;;;;;;;3.97;3.57;;;15.40;99.90;;;;;;5039017;28;20267;-96
2023/06/23 08:04:17;;;;;;;5.17;3.70;;;15.30;99.90;;;;;;5039476;28;20271;-95
2023/06/23 08:06:51;;;;;;;4.67;3.67;;;15.30;99.90;;;;;;5038914;28;20665;-95
2023/06/23 08:09:25;;;;;;;5.83;3.97;;;15.30;99.90;;;;;;5038446;28;20296;-95
2023/06/23 08:11:56;;;;;;;7.33;3.87;;;15.20;99.90;;;;;;5033728;28;20250;-95
2023/06/23 08:14:28;;;;;;;3.83;3.43;;;15.20;99.90;;;;;;5033515;28;20311;-95
2023/06/23 08:16:59;;;;;;;7.50;3.97;;;15.10;99.90;;;;;;5039062;28;20388;-96
2023/06/23 08:19:31;;;;;;;5.27;3.93;;;15.10;99.90;;;;;;5051383;28;20186;-95
2023/06/23 08:22:03;;;;;;;5.47;4.13;;;15.00;99.90;;;;;;5054038;28;20201;-96
2023/06/23 08:24:38;;;;;;;7.17;4.30;;;15.00;99.90;;;;;;5048296;28;20672;-96
2023/06/23 08:27:10;;;;;;;5.00;3.97;;;14.90;99.90;;;;;;5038303;28;20593;-96
2023/06/23 08:29:41;;;;;;;4.43;3.77;;;14.90;99.90;;;;;;5029532;28;20204;-95
2023/06/23 08:32:13;;;;;;;5.93;4.03;;;14.90;99.90;;;;;;5034027;28;20212;-96
2023/06/23 08:34:44;;;;;;;5.17;3.97;;;14.80;99.90;;;;;;5040954;28;20229;-96
2023/06/23 08:37:15;;;;;;;7.30;4.10;;;14.80;99.90;;;;;;5047447;28;20229;-96
2023/06/23 08:39:49;;;;;;;5.80;4.10;;;14.70;99.90;;;;;;5040249;28;20228;-95
2023/06/23 08:42:21;;;;;;;4.87;3.73;;;14.60;99.90;;;;;;5041794;28;20200;-96
2023/06/23 08:44:54;;;;;;;3.90;3.50;;;14.60;99.90;;;;;;5055474;28;20193;-95
2023/06/23 08:47:31;;;;;;;4.37;3.90;;;14.60;99.90;;;;;;5055336;28;20197;-94
2023/06/23 08:50:04;;;;;;;4.10;3.70;;;14.50;99.90;;;;;;5053911;28;21291;-96
2023/06/23 08:52:35;;;;;;;4.40;3.70;;;14.50;99.90;;;;;;5053286;28;20263;-96
2023/06/23 08:55:10;;;;;;;4.60;4.20;;;14.40;99.90;;;;;;5040581;28;20295;-95
2023/06/23 08:57:42;;;;;;;4.73;4.20;;;14.40;99.90;;;;;;5036338;28;20197;-96
2023/06/23 09:00:14;;;;;;;6.80;4.50;;;14.40;99.90;;;;;;5036209;28;20880;-96
2023/06/23 09:02:45;;;;;;;4.50;3.70;;;14.40;99.90;;;;;;5033989;28;20229;-96
2023/06/23 09:05:17;;;;;;;4.63;3.90;;;14.30;99.90;;;;;;5053550;28;20240;-96
2023/06/23 09:07:49;;;;;;;4.13;3.73;;;14.30;99.90;;;;;;5049805;28;20642;-96
2023/06/23 09:10:24;;;;;;;4.70;3.83;;;14.30;99.90;;;;;;5054539;28;20193;-93
2023/06/23 09:13:23;;;;;;;6.53;3.77;;;14.30;99.90;;;;;;5053143;28;20195;-96
2023/06/23 09:15:55;;;;;;;5.37;3.90;;;14.30;99.90;;;;;;5053516;28;20294;-96
2023/06/23 09:18:35;;;;;;;5.53;4.17;;;14.30;99.90;;;;;;5055624;28;20192;-96
2023/06/23 09:21:08;;;;;;;4.37;3.97;;;14.20;99.90;;;;;;5053088;28;20207;-96
2023/06/23 09:23:41;;;;;;;4.30;3.90;;;14.20;99.90;;;;;;5032440;28;20209;-96
2023/06/23 09:26:21;;;;;;;5.47;3.97;;;14.10;99.90;;;;;;5036075;28;20197;-96
2023/06/23 09:28:52;;;;;;;5.03;3.83;;;14.10;99.90;;;;;;5036627;28;20708;-96
2023/06/23 09:31:24;;;;;;;4.10;3.70;;;14.10;99.90;;;;;;5050743;28;20266;-96
2023/06/23 09:33:56;;;;;;;5.80;4.17;;;14.10;99.90;;;;;;5027383;28;20206;-95
2023/06/23 09:36:36;;;;;;;4.10;3.70;;;14.00;99.90;;;;;;5028067;28;20229;-95
2023/06/23 09:39:14;;;;;;;4.77;4.10;;;14.00;99.90;;;;;;5026085;28;20193;-96
2023/06/23 09:41:56;;;;;;;6.20;3.90;;;13.90;99.90;;;;;;5028133;28;20231;-96
2023/06/23 09:44:39;;;;;;;5.97;3.87;;;13.90;99.90;;;;;;5038395;28;20259;-96
2023/06/23 09:47:10;;;;;;;6.57;4.23;;;13.90;99.90;;;;;;5037300;28;20713;-96
2023/06/23 09:49:43;;;;;;;6.93;4.00;;;13.90;99.90;;;;;;5038560;28;20232;-96
2023/06/23 09:52:16;;;;;;;4.50;4.10;;;13.90;99.90;;;;;;5022278;28;20197;-96
2023/06/23 09:54:48;;;;;;;4.07;3.47;;;13.80;99.90;;;;;;5038324;28;20224;-94
2023/06/23 09:57:22;;;;;;;5.47;4.27;;;13.80;99.90;;;;;;5033259;28;20206;-95
2023/06/23 09:59:56;;;;;;;4.43;4.00;;;13.80;99.90;;;;;;5052269;28;20185;-95
2023/06/23 10:02:28;;;;;;;4.03;3.63;;;13.80;99.90;;;;;;5054202;28;20219;-96
2023/06/23 10:05:05;;;;;;;5.07;3.67;;;13.70;99.90;;;;;;5055019;28;20200;-95
2023/06/23 10:07:37;;;;;;;4.70;4.17;;;13.80;99.90;;;;;;5055128;28;20220;-96
2023/06/23 10:10:09;;;;;;;4.63;3.97;;;13.70;99.90;;;;;;5037404;28;20200;-96
2023/06/23 10:13:03;;;;;;;4.67;4.07;;;13.70;99.90;;;;;;5050947;28;20284;-96
2023/06/23 10:15:35;;;;;;;4.40;4.00;;;13.80;99.90;;;;;;5048720;28;20240;-96
2023/06/23 10:18:10;;;;;;;4.93;3.93;;;13.70;99.90;;;;;;5036813;28;20569;-96
2023/06/23 10:20:42;;;;;;;4.40;4.00;;;13.70;99.90;;;;;;5028793;28;20213;-96
2023/06/23 10:23:14;;;;;;;5.97;3.87;;;13.70;99.90;;;;;;5025151;28;20244;-95
2023/06/23 10:25:50;;;;;;;5.23;3.83;;;13.60;99.90;;;;;;5042032;28;20211;-96
2023/06/23 10:28:30;;;;;;;4.63;3.83;;;13.60;99.90;;;;;;5050599;28;20736;-96
2023/06/23 10:31:05;;;;;;;6.27;4.13;;;13.60;99.90;;;;;;5041890;28;20543;-96
2023/06/23 10:33:40;;;;;;;4.43;3.60;;;13.50;99.90;;;;;;5018075;28;20219;-96
2023/06/23 10:36:16;;;;;;;5.13;3.97;;;13.40;99.90;;;;;;5021374;28;20235;-96
2023/06/23 10:38:53;;;;;;;4.73;4.13;;;13.40;99.90;;;;;;5022858;28;20205;-96
2023/06/23 10:41:27;;;;;;;4.37;3.90;;;13.40;99.90;;;;;;5034368;28;20221;-96
2023/06/23 10:44:07;;;;;;;4.20;3.80;;;13.40;99.90;;;;;;5033937;28;20216;-96
2023/06/23 10:46:40;;;;;;;4.73;4.03;;;13.30;99.90;;;;;;5031766;28;20209;-96
2023/06/23 10:49:16;;;;;;;4.57;4.17;;;13.30;99.90;;;;;;5032126;28;20223;-95
2023/06/23 10:51:53;;;;;;;4.47;3.53;;;13.30;99.90;;;;;;5024499;28;20209;-96
2023/06/23 10:54:31;;;;;;;5.07;3.83;;;13.30;99.90;;;;;;5035225;28;20661;-96
2023/06/23 10:57:11;;;;;;;4.60;4.10;;;13.30;99.90;;;;;;5027246;28;20284;-96
2023/06/23 10:59:46;;;;;;;4.60;3.67;;;13.30;99.90;;;;;;5020228;28;20209;-96
2023/06/23 11:02:22;;;;;;;5.07;3.80;;;13.30;99.90;;;;;;5027299;28;20212;-96
2023/06/23 11:04:57;;;;;;;4.93;4.10;;;13.30;99.90;;;;;;5036125;28;20217;-96
2023/06/23 11:07:31;;;;;;;5.03;4.07;;;13.30;99.90;;;;;;5029569;28;20292;-96
2023/06/23 11:10:06;;;;;;;4.50;4.10;;;13.30;99.90;;;;;;5019026;28;20396;-96
2023/06/23 11:12:44;;;;;;;3.80;3.50;;;13.30;99.90;;;;;;5033495;28;20209;-96
2023/06/23 11:15:20;;;;;;;5.70;4.10;;;13.30;99.90;;;;;;5033912;28;20196;-95
2023/06/23 11:17:52;;;;;;;4.50;4.10;;;13.30;99.90;;;;;;5029983;28;20192;-95
2023/06/23 11:20:31;;;;;;;5.20;3.80;;;13.30;99.90;;;;;;5037020;28;20205;-96
2023/06/23 11:23:05;;;;;;;5.03;4.13;;;13.20;99.90;;;;;;5035618;28;20227;-95
2023/06/23 11:25:39;;;;;;;5.33;4.10;;;13.20;99.90;;;;;;5031694;28;20216;-96
2023/06/23 11:28:30;;;;;;;4.63;3.60;;;13.20;99.90;;;;;;5028195;28;20204;-96
2023/06/23 11:31:09;;;;;;;5.33;4.00;;;13.20;99.90;;;;;;5040570;28;20197;-96
2023/06/23 11:33:41;;;;;;;3.57;3.27;;;13.10;99.90;;;;;;5048994;28;20204;-96
2023/06/23 11:36:16;;;;;;;5.10;3.90;;;13.10;99.90;;;;;;5050964;28;20225;-96
2023/06/23 11:38:51;;;;;;;5.30;4.43;;;13.10;99.90;;;;;;5030807;28;20210;-95
2023/06/23 11:41:28;;;;;;;4.37;3.73;;;13.10;99.90;;;;;;5037580;28;20232;-95
2023/06/23 11:44:05;;;;;;;6.70;4.13;;;13.10;99.90;;;;;;5044334;28;20220;-96
2023/06/23 11:46:38;;;;;;;7.23;4.30;;;13.10;99.90;;;;;;5040709;28;20216;-96
2023/06/23 11:49:13;;;;;;;6.57;4.30;;;13.00;99.90;;;;;;5038488;28;20213;-95
2023/06/23 11:51:46;;;;;;;4.60;4.20;;;13.00;99.90;;;;;;5042459;28;20216;-96
2023/06/23 11:54:19;;;;;;;5.67;4.40;;;13.00;99.90;;;;;;5038687;28;20201;-96
2023/06/23 11:56:54;;;;;;;5.13;4.10;;;13.00;99.90;;;;;;5018823;28;20233;-96
2023/06/23 11:59:26;;;;;;;5.40;4.47;;;12.90;99.90;;;;;;5043234;28;20212;-95
2023/06/23 12:02:06;;;;;;;6.50;4.73;;;12.80;99.90;;;;;;5051352;28;20194;-96
2023/06/23 12:04:39;;;;;;;5.13;4.30;;;12.80;99.90;;;;;;5053737;28;20213;-96
2023/06/23 12:07:12;;;;;;;5.00;4.50;;;12.80;99.90;;;;;;5055658;28;20244;-96
2023/06/23 12:09:44;;;;;;;7.60;4.57;;;12.80;99.90;;;;;;5046297;28;20638;-96
2023/06/23 12:12:17;;;;;;;4.53;4.13;;;12.70;99.90;;;;;;5037661;28;20238;-96
2023/06/23 12:14:48;;;;;;;5.43;4.93;;;12.70;99.90;;;;;;5031617;28;20205;-96
2023/06/23 12:17:23;;;;;;;6.13;5.00;;;12.60;99.90;;;;;;5037659;28;20236;-94
2023/06/23 12:19:55;;;;;;;4.97;4.20;;;12.60;99.90;;;;;;5028080;28;20205;-95
2023/06/23 12:22:36;;;;;;;4.97;4.50;;;12.50;99.90;;;;;;5027773;28;20251;-95
2023/06/23 12:25:08;;;;;;;4.70;4.20;;;12.50;99.90;;;;;;5033154;28;20200;-95
2023/06/23 12:27:40;;;;;;;5.73;4.90;;;12.50;99.90;;;;;;5037017;28;20196;-95
2023/06/23 12:30:18;;;;;;;6.63;4.50;;;12.50;99.90;;;;;;5028033;28;20216;-95
2023/06/23 12:32:56;;;;;;;5.07;4.13;;;12.50;99.90;;;;;;5054887;28;20209;-95
2023/06/23 12:35:32;;;;;;;7.37;4.47;;;12.50;99.90;;;;;;5048821;28;20248;-95
2023/06/23 12:38:04;;;;;;;4.87;4.17;;;12.50;99.90;;;;;;5041475;28;20243;-96
2023/06/23 12:40:38;;;;;;;5.90;4.30;;;12.50;99.90;;;;;;5035803;28;20554;-95
2023/06/23 12:43:11;;;;;;;4.93;4.20;;;12.50;99.90;;;;;;5036582;28;20204;-96
2023/06/23 12:45:42;;;;;;;5.47;4.50;;;12.60;99.90;;;;;;5029699;28;20664;-96
2023/06/23 12:48:17;;;;;;;4.53;4.13;;;12.60;99.90;;;;;;5036513;28;20201;-96
2023/06/23 12:50:49;;;;;;;5.77;4.07;;;12.50;99.90;;;;;;5027166;28;20259;-96
2023/06/23 12:53:21;;;;;;;10.90;4.87;;;12.60;99.90;;;;;;5034050;28;20283;-96
2023/06/23 12:55:53;;;;;;;5.60;4.97;;;12.60;99.90;;;;;;5036638;28;20204;-96
2023/06/23 12:58:24;;;;;;;6.30;4.60;;;12.60;99.90;;;;;;5028524;28;20657;-95
2023/06/23 13:00:55;;;;;;;6.43;4.73;;;12.60;99.90;;;;;;5037423;28;20209;-95
2023/06/23 13:03:28;;;;;;;5.80;4.43;;;12.60;99.90;;;;;;5034607;28;20231;-95
2023/06/23 13:06:00;;;;;;;5.20;4.70;;;12.60;99.90;;;;;;5036550;28;20215;-95
2023/06/23 13:08:31;;;;;;;6.90;4.87;;;12.60;99.90;;;;;;5034509;28;20205;-96
2023/06/23 13:11:03;;;;;;;5.23;4.73;;;12.70;99.90;;;;;;5037154;28;20665;-96
2023/06/23 13:13:34;;;;;;;5.57;4.60;;;12.70;99.90;;;;;;5023987;28;20216;-94
2023/06/23 13:16:07;;;;;;;6.43;4.30;;;12.70;99.90;;;;;;5035888;28;20405;-95
2023/06/23 13:18:41;;;;;;;6.17;4.50;;;12.80;99.90;;;;;;5032323;28;20190;-95
2023/06/23 13:21:12;;;;;;;6.00;4.50;;;12.80;99.90;;;;;;5033604;28;20216;-95